createdAt,value
2023-04-18T00:01:34.675Z,10.80
2023-04-18T00:04:05.132Z,10.70
2023-04-18T00:06:35.800Z,10.90
2023-04-18T00:09:05.122Z,10.70
2023-04-18T00:11:34.328Z,10.80
2023-04-18T00:14:03.429Z,10.70
2023-04-18T00:16:33.094Z,10.80
2023-04-18T00:19:04.996Z,10.70
2023-04-18T00:21:33.358Z,10.80
2023-04-18T00:24:02.186Z,10.70
2023-04-18T00:26:30.439Z,10.70
2023-04-18T00:28:58.831Z,10.70
2023-04-18T00:31:27.119Z,10.70
2023-04-18T00:33:55.481Z,10.70
2023-04-18T00:36:25.146Z,10.60
2023-04-18T00:38:53.408Z,10.70
2023-04-18T00:41:22.871Z,10.70
2023-04-18T00:43:51.165Z,10.70
2023-04-18T00:46:19.629Z,10.70
2023-04-18T00:48:48.588Z,10.70
2023-04-18T00:51:17.056Z,10.70
2023-04-18T00:53:46.831Z,10.70
2023-04-18T00:56:15.756Z,10.60
2023-04-18T00:58:44.808Z,10.60
2023-04-18T01:01:14.682Z,10.60
2023-04-18T01:03:46.974Z,10.60
2023-04-18T01:06:15.621Z,10.60
2023-04-18T01:08:46.134Z,10.60
2023-04-18T01:11:16.230Z,10.60
2023-04-18T01:13:59.850Z,10.60
2023-04-18T01:16:29.592Z,10.60
2023-04-18T01:18:58.012Z,10.60
2023-04-18T01:21:31.336Z,10.60
2023-04-18T01:24:12.561Z,10.60
2023-04-18T01:26:41.503Z,10.50
2023-04-18T01:29:09.687Z,10.60
2023-04-18T01:31:39.162Z,10.60
2023-04-18T01:34:08.399Z,10.50
2023-04-18T01:36:38.333Z,10.60
2023-04-18T01:39:07.135Z,10.60
2023-04-18T01:41:36.977Z,10.50
2023-04-18T01:44:07.026Z,10.60
2023-04-18T01:46:36.201Z,10.60
2023-04-18T01:49:11.696Z,10.60
2023-04-18T01:51:40.150Z,10.60
2023-04-18T01:54:08.309Z,10.60
2023-04-18T01:56:38.007Z,10.60
2023-04-18T01:59:06.189Z,10.50
2023-04-18T02:01:38.006Z,10.60
2023-04-18T02:04:06.233Z,10.50
2023-04-18T02:06:34.797Z,10.50
2023-04-18T02:09:03.061Z,10.50
2023-04-18T02:11:31.568Z,10.60
2023-04-18T02:14:01.072Z,10.60
2023-04-18T02:16:29.417Z,10.60
2023-04-18T02:18:57.858Z,10.50
2023-04-18T02:21:26.142Z,10.50
2023-04-18T02:23:54.304Z,10.50
2023-04-18T02:26:24.986Z,10.50
2023-04-18T02:28:53.365Z,10.50
2023-04-18T02:31:23.155Z,10.50
2023-04-18T02:33:51.376Z,10.60
2023-04-18T02:36:19.853Z,10.60
2023-04-18T02:38:47.956Z,10.60
2023-04-18T02:41:19.640Z,10.60
2023-04-18T02:43:47.870Z,10.50
2023-04-18T02:46:16.522Z,10.60
2023-04-18T02:48:46.102Z,10.50
2023-04-18T02:51:14.513Z,10.60
2023-04-18T02:53:42.872Z,10.70
2023-04-18T02:56:11.919Z,10.60
2023-04-18T02:58:40.221Z,10.70
2023-04-18T03:01:08.931Z,10.70
2023-04-18T03:03:37.440Z,10.60
2023-04-18T03:06:07.193Z,10.60
2023-04-18T03:08:36.024Z,10.60
2023-04-18T03:11:07.175Z,10.70
2023-04-18T03:13:36.493Z,10.60
2023-04-18T03:16:05.264Z,10.80
2023-04-18T03:18:33.644Z,10.60
2023-04-18T03:21:01.964Z,10.60
2023-04-18T03:23:31.862Z,10.60
2023-04-18T03:26:00.162Z,10.60
2023-04-18T03:28:28.605Z,10.70
2023-04-18T03:30:56.894Z,10.60
2023-04-18T03:33:25.327Z,10.70
2023-04-18T03:35:53.487Z,10.70
2023-04-18T03:38:22.011Z,10.60
2023-04-18T03:40:51.637Z,10.70
2023-04-18T03:43:21.135Z,10.70
2023-04-18T03:45:50.091Z,10.70
2023-04-18T03:48:18.723Z,10.70
2023-04-18T03:50:46.956Z,10.70
2023-04-18T03:53:15.684Z,10.70
2023-04-18T03:55:44.557Z,10.70
2023-04-18T03:58:14.762Z,10.70
2023-04-18T04:00:42.972Z,10.60
2023-04-18T04:03:11.516Z,10.70
2023-04-18T04:05:39.876Z,10.60
2023-04-18T04:08:08.537Z,10.70
2023-04-18T04:10:39.686Z,10.80
2023-04-18T04:13:08.359Z,10.80
2023-04-18T04:15:39.596Z,10.70
2023-04-18T04:18:09.113Z,10.80
2023-04-18T04:20:37.550Z,10.70
2023-04-18T04:23:06.545Z,10.70
2023-04-18T04:25:35.940Z,10.70
2023-04-18T04:28:15.034Z,10.70
2023-04-18T04:30:44.626Z,10.80
2023-04-18T04:33:13.314Z,10.80
2023-04-18T04:35:41.812Z,10.80
2023-04-18T04:38:12.506Z,10.80
2023-04-18T04:40:40.907Z,10.70
2023-04-18T04:43:12.907Z,10.70
2023-04-18T04:45:41.540Z,10.70
2023-04-18T04:48:11.374Z,10.80
2023-04-18T04:50:41.492Z,10.80
2023-04-18T04:53:11.767Z,10.80
2023-04-18T04:55:40.765Z,10.80
2023-04-18T04:58:09.346Z,10.80
2023-04-18T05:00:37.722Z,10.80
2023-04-18T05:03:07.102Z,10.80
2023-04-18T05:05:37.502Z,10.80
2023-04-18T05:08:06.433Z,10.80
2023-04-18T05:10:37.220Z,10.90
2023-04-18T05:13:05.978Z,10.90
2023-04-18T05:15:36.004Z,10.80
2023-04-18T05:18:04.506Z,10.80
2023-04-18T05:20:33.534Z,10.80
2023-04-18T05:23:03.230Z,10.80
2023-04-18T05:25:32.493Z,10.80
2023-04-18T05:28:01.729Z,10.80
2023-04-18T05:30:29.845Z,10.80
2023-04-18T05:32:58.160Z,10.80
2023-04-18T05:35:26.577Z,10.80
2023-04-18T05:37:55.066Z,10.80
2023-04-18T05:40:24.929Z,10.80
2023-04-18T05:42:54.024Z,10.70
2023-04-18T05:45:22.861Z,10.80
2023-04-18T05:47:54.049Z,10.80
2023-04-18T05:50:23.510Z,10.90
2023-04-18T05:52:52.603Z,10.80
2023-04-18T05:55:21.616Z,11.00
2023-04-18T05:57:54.926Z,10.90
2023-04-18T06:00:24.683Z,10.90
2023-04-18T06:02:53.694Z,10.90
2023-04-18T06:05:22.904Z,10.90
2023-04-18T06:07:51.545Z,10.90
2023-04-18T06:10:20.276Z,11.00
2023-04-18T06:12:49.060Z,10.90
2023-04-18T06:15:18.994Z,10.90
2023-04-18T06:17:47.598Z,10.90
2023-04-18T06:20:16.898Z,10.90
2023-04-18T06:22:45.502Z,10.90
2023-04-18T06:25:14.101Z,10.80
2023-04-18T06:27:42.779Z,11.00
2023-04-18T06:30:12.620Z,10.80
2023-04-18T06:32:46.144Z,10.90
2023-04-18T06:35:15.563Z,10.90
2023-04-18T06:37:44.929Z,10.90
2023-04-18T06:40:14.038Z,11.00
2023-04-18T06:42:43.670Z,11.00
2023-04-18T06:45:13.380Z,11.00
2023-04-18T06:47:43.534Z,11.10
2023-04-18T06:50:12.728Z,11.00
2023-04-18T06:52:44.465Z,11.00
2023-04-18T06:55:14.220Z,11.10
2023-04-18T06:57:43.544Z,11.20
2023-04-18T07:00:13.340Z,11.20
2023-04-18T07:02:44.708Z,11.30
2023-04-18T07:05:13.388Z,11.20
2023-04-18T07:07:42.003Z,11.20
2023-04-18T07:10:11.740Z,11.30
2023-04-18T07:12:40.143Z,11.30
2023-04-18T07:15:09.826Z,11.30
2023-04-18T07:17:38.271Z,11.30
2023-04-18T07:20:10.182Z,11.40
2023-04-18T07:22:41.233Z,11.40
2023-04-18T07:25:10.619Z,11.40
2023-04-18T07:27:39.095Z,11.40
2023-04-18T07:30:11.216Z,11.30
2023-04-18T07:32:39.568Z,11.60
2023-04-18T07:35:10.180Z,11.60
2023-04-18T07:37:38.912Z,11.50
2023-04-18T07:40:08.510Z,11.50
2023-04-18T07:42:37.083Z,11.50
2023-04-18T07:45:06.244Z,11.40
2023-04-18T07:47:34.687Z,11.50
2023-04-18T07:50:04.100Z,11.40
2023-04-18T07:52:34.096Z,11.40
2023-04-18T07:55:02.525Z,11.40
2023-04-18T07:57:31.460Z,11.30
2023-04-18T07:59:59.720Z,11.30
2023-04-18T08:02:28.059Z,11.30
2023-04-18T08:04:56.510Z,11.30
2023-04-18T08:07:25.207Z,11.30
2023-04-18T08:09:54.933Z,11.30
2023-04-18T08:12:23.190Z,11.20
2023-04-18T08:14:51.454Z,11.20
2023-04-18T08:17:19.856Z,11.30
2023-04-18T08:19:48.126Z,11.40
2023-04-18T08:22:16.874Z,11.40
2023-04-18T08:25:00.975Z,11.50
2023-04-18T08:27:33.772Z,11.50
2023-04-18T08:30:04.381Z,11.40
2023-04-18T08:32:33.609Z,11.40
2023-04-18T08:35:02.226Z,11.40
2023-04-18T08:37:31.593Z,11.30
2023-04-18T08:39:59.798Z,11.30
2023-04-18T08:42:28.772Z,11.30
2023-04-18T08:44:59.688Z,11.30
2023-04-18T08:47:30.020Z,11.40
2023-04-18T08:49:58.709Z,11.40
2023-04-18T08:52:29.660Z,11.40
2023-04-18T08:54:58.194Z,11.40
2023-04-18T08:57:27.715Z,11.40
2023-04-18T08:59:56.413Z,11.40
2023-04-18T09:02:39.078Z,11.40
2023-04-18T09:05:13.718Z,11.40
2023-04-18T09:07:42.704Z,11.50
2023-04-18T09:10:12.527Z,11.40
2023-04-18T09:12:44.801Z,11.40
2023-04-18T09:15:15.972Z,11.40
2023-04-18T09:17:51.226Z,11.40
2023-04-18T09:20:34.384Z,11.50
2023-04-18T09:23:06.210Z,11.60
2023-04-18T09:25:40.793Z,11.50
2023-04-18T09:28:23.530Z,11.50
2023-04-18T09:30:52.982Z,11.50
2023-04-18T09:33:29.291Z,11.50
2023-04-18T09:36:00.234Z,11.50
2023-04-18T09:38:41.211Z,11.50
2023-04-18T09:41:09.932Z,11.50
2023-04-18T09:43:38.415Z,11.60
2023-04-18T09:46:06.867Z,11.50
2023-04-18T09:48:36.453Z,11.50
2023-04-18T09:51:08.121Z,11.70
2023-04-18T09:53:40.452Z,11.60
2023-04-18T09:56:13.573Z,11.60
2023-04-18T09:58:45.026Z,11.50
2023-04-18T10:01:13.541Z,11.60
2023-04-18T10:03:50.055Z,11.60
2023-04-18T10:06:18.922Z,11.70
2023-04-18T10:08:49.934Z,11.70
2023-04-18T10:11:19.308Z,11.70
2023-04-18T10:13:50.609Z,11.70
2023-04-18T10:16:21.045Z,11.70
2023-04-18T10:18:51.985Z,11.80
2023-04-18T10:21:20.452Z,11.80
2023-04-18T10:23:50.509Z,11.90
2023-04-18T10:26:18.860Z,11.90
2023-04-18T10:28:56.849Z,12.00
2023-04-18T10:31:30.961Z,12.00
2023-04-18T10:34:05.522Z,11.90
2023-04-18T10:37:04.901Z,12.00
2023-04-18T10:39:49.368Z,12.00
2023-04-18T10:42:17.716Z,12.10
2023-04-18T10:45:19.897Z,12.20
2023-04-18T10:47:48.645Z,12.20
2023-04-18T10:50:17.947Z,12.10
2023-04-18T10:52:46.405Z,12.30
2023-04-18T10:55:19.424Z,12.20
2023-04-18T10:57:50.417Z,12.30
2023-04-18T11:00:21.779Z,12.40
2023-04-18T11:02:53.653Z,12.30
2023-04-18T11:05:24.623Z,12.40
2023-04-18T11:07:53.521Z,12.40
2023-04-18T11:10:23.935Z,12.40
2023-04-18T11:12:52.872Z,12.40
2023-04-18T11:15:24.020Z,12.50
2023-04-18T11:18:01.389Z,12.50
2023-04-18T11:20:30.540Z,12.60
2023-04-18T11:23:01.036Z,12.50
2023-04-18T11:25:30.591Z,12.60
2023-04-18T11:28:00.912Z,12.60
2023-04-18T11:30:38.492Z,12.60
2023-04-18T11:33:08.468Z,12.70
2023-04-18T11:35:40.744Z,12.70
2023-04-18T11:38:11.317Z,12.70
2023-04-18T11:40:49.720Z,12.70
2023-04-18T11:43:23.146Z,12.70
2023-04-18T11:45:55.876Z,12.70
2023-04-18T11:48:25.181Z,12.80
2023-04-18T11:50:53.818Z,12.90
2023-04-18T11:53:34.197Z,12.80
2023-04-18T11:56:03.617Z,12.90
2023-04-18T11:58:33.154Z,12.80
2023-04-18T12:01:17.311Z,12.90
2023-04-18T12:03:46.205Z,12.80
2023-04-18T12:06:14.658Z,12.80
2023-04-18T12:08:44.496Z,12.80
2023-04-18T12:11:20.983Z,12.80
2023-04-18T12:13:49.996Z,12.80
2023-04-18T12:16:19.643Z,12.80
2023-04-18T12:18:48.868Z,12.90
2023-04-18T12:21:17.732Z,12.80
2023-04-18T12:23:46.545Z,12.80
2023-04-18T12:26:18.219Z,12.80
2023-04-18T12:28:48.057Z,12.80
2023-04-18T12:31:16.477Z,12.90
2023-04-18T12:33:46.654Z,12.90
2023-04-18T12:36:15.301Z,12.90
2023-04-18T12:38:43.868Z,12.90
2023-04-18T12:41:16.067Z,12.90
2023-04-18T12:43:44.925Z,13.00
2023-04-18T12:46:14.974Z,12.90
2023-04-18T12:48:43.722Z,12.90
2023-04-18T12:51:14.604Z,12.80
2023-04-18T12:53:43.161Z,12.80
2023-04-18T12:56:11.589Z,12.80
2023-04-18T12:58:44.437Z,12.90
2023-04-18T13:01:18.818Z,12.80
2023-04-18T13:03:53.682Z,12.90
2023-04-18T13:06:34.286Z,12.80
2023-04-18T13:09:05.559Z,12.90
2023-04-18T13:11:45.936Z,12.90
2023-04-18T13:14:17.872Z,12.90
2023-04-18T13:16:46.460Z,13.00
2023-04-18T13:19:14.768Z,13.00
2023-04-18T13:21:46.851Z,13.00
2023-04-18T13:24:16.709Z,13.00
2023-04-18T13:26:45.112Z,13.00
2023-04-18T13:29:13.816Z,13.00
2023-04-18T13:31:42.282Z,13.10
2023-04-18T13:34:10.784Z,13.00
2023-04-18T13:36:39.652Z,13.10
2023-04-18T13:39:10.674Z,13.00
2023-04-18T13:41:38.794Z,13.20
2023-04-18T13:44:08.309Z,13.20
2023-04-18T13:46:36.749Z,13.20
2023-04-18T13:49:07.582Z,13.10
2023-04-18T13:51:35.742Z,13.10
2023-04-18T13:54:04.530Z,13.10
2023-04-18T13:56:34.216Z,13.10
2023-04-18T13:59:06.861Z,13.00
2023-04-18T14:01:36.812Z,13.10
2023-04-18T14:04:05.780Z,13.00
2023-04-18T14:06:34.191Z,13.00
2023-04-18T14:09:02.723Z,13.10
2023-04-18T14:11:31.732Z,13.00
2023-04-18T14:14:01.752Z,13.00
2023-04-18T14:16:32.588Z,12.90
2023-04-18T14:19:01.966Z,12.90
2023-04-18T14:21:31.185Z,12.90
2023-04-18T14:23:59.676Z,12.90
2023-04-18T14:26:29.408Z,12.80
2023-04-18T14:28:58.262Z,12.90
2023-04-18T14:31:51.138Z,12.80
2023-04-18T14:34:20.263Z,12.80
2023-04-18T14:36:49.996Z,12.80
2023-04-18T14:39:18.675Z,12.70
2023-04-18T14:41:47.276Z,12.70
2023-04-18T14:44:15.468Z,12.70
2023-04-18T14:46:44.982Z,12.60
2023-04-18T14:49:13.495Z,12.70
2023-04-18T14:51:42.641Z,12.70
2023-04-18T14:54:10.809Z,12.70
2023-04-18T14:56:39.197Z,12.60
2023-04-18T14:59:07.380Z,12.70
2023-04-18T15:01:36.377Z,12.70
2023-04-18T15:04:06.530Z,12.60
2023-04-18T15:06:34.827Z,12.60
2023-04-18T15:09:11.494Z,12.60
2023-04-18T15:11:40.440Z,12.50
2023-04-18T15:14:10.043Z,12.60
2023-04-18T15:16:40.896Z,12.40
2023-04-18T15:19:10.608Z,12.50
2023-04-18T15:21:38.825Z,12.60
2023-04-18T15:24:08.229Z,12.60
2023-04-18T15:26:36.967Z,12.60
2023-04-18T15:29:07.576Z,12.60
2023-04-18T15:31:37.147Z,12.60
2023-04-18T15:34:08.234Z,12.70
2023-04-18T15:36:41.421Z,12.60
2023-04-18T15:39:09.885Z,12.60
2023-04-18T15:41:38.401Z,12.70
2023-04-18T15:44:08.012Z,12.60
2023-04-18T15:46:38.764Z,12.60
2023-04-18T15:49:07.298Z,12.60
2023-04-18T15:51:35.606Z,12.50
2023-04-18T15:54:05.680Z,12.60
2023-04-18T15:56:35.901Z,12.50
2023-04-18T15:59:05.736Z,12.60
2023-04-18T16:01:35.692Z,12.60
2023-04-18T16:04:04.521Z,12.50
2023-04-18T16:06:33.713Z,12.50
2023-04-18T16:09:02.344Z,12.50
2023-04-18T16:11:32.089Z,12.50
2023-04-18T16:14:00.238Z,12.50
2023-04-18T16:16:29.415Z,12.50
2023-04-18T16:19:00.891Z,12.60
2023-04-18T16:21:29.914Z,12.50
2023-04-18T16:23:58.756Z,12.40
2023-04-18T16:26:28.692Z,12.60
2023-04-18T16:28:59.192Z,12.50
2023-04-18T16:31:27.755Z,12.50
2023-04-18T16:33:56.646Z,12.50
2023-04-18T16:36:28.153Z,12.50
2023-04-18T16:39:00.169Z,12.40
2023-04-18T16:41:33.300Z,12.50
2023-04-18T16:44:03.449Z,12.50
2023-04-18T16:46:32.820Z,12.40
2023-04-18T16:49:03.658Z,12.50
2023-04-18T16:51:32.404Z,12.50
2023-04-18T16:54:00.964Z,12.40
2023-04-18T16:56:33.508Z,12.40
2023-04-18T16:59:04.032Z,12.40
2023-04-18T17:01:34.017Z,12.40
2023-04-18T17:04:03.118Z,12.40
2023-04-18T17:06:32.179Z,12.50
2023-04-18T17:09:06.277Z,12.50
2023-04-18T17:11:39.740Z,12.40
2023-04-18T17:14:09.972Z,12.40
2023-04-18T17:16:40.089Z,12.40
2023-04-18T17:19:10.052Z,12.40
2023-04-18T17:21:38.948Z,12.50
2023-04-18T17:24:07.676Z,12.40
2023-04-18T17:26:37.915Z,12.40
2023-04-18T17:29:07.953Z,12.50
2023-04-18T17:31:38.040Z,12.50
2023-04-18T17:34:06.376Z,12.40
2023-04-18T17:36:37.914Z,12.40
2023-04-18T17:39:06.511Z,12.40
2023-04-18T17:41:37.931Z,12.40
2023-04-18T17:44:07.464Z,12.50
2023-04-18T17:46:37.588Z,12.40
2023-04-18T17:49:06.135Z,12.40
2023-04-18T17:51:34.483Z,12.40
2023-04-18T17:54:02.986Z,12.40
2023-04-18T17:56:31.552Z,12.40
2023-04-18T17:58:59.895Z,12.40
2023-04-18T18:01:30.220Z,12.40
2023-04-18T18:04:00.245Z,12.40
2023-04-18T18:06:28.794Z,12.40
2023-04-18T18:08:57.121Z,12.40
2023-04-18T18:11:27.423Z,12.40
2023-04-18T18:13:57.289Z,12.40
2023-04-18T18:16:25.985Z,12.50
2023-04-18T18:18:54.654Z,12.50
2023-04-18T18:21:24.495Z,12.50
2023-04-18T18:23:52.928Z,12.40
2023-04-18T18:26:21.489Z,12.40
2023-04-18T18:28:50.199Z,12.40
2023-04-18T18:31:23.027Z,12.40
2023-04-18T18:33:51.386Z,12.50
2023-04-18T18:36:19.794Z,12.40
2023-04-18T18:38:49.813Z,12.40
2023-04-18T18:41:18.189Z,12.40
2023-04-18T18:43:46.803Z,12.40
2023-04-18T18:46:16.605Z,12.50
2023-04-18T18:48:45.667Z,12.40
2023-04-18T18:51:14.301Z,12.40
2023-04-18T18:53:42.982Z,12.40
2023-04-18T18:56:12.710Z,12.50
2023-04-18T18:58:41.200Z,12.40
2023-04-18T19:01:11.472Z,12.50
2023-04-18T19:03:41.045Z,12.40
2023-04-18T19:06:11.461Z,12.40
2023-04-18T19:08:39.786Z,12.50
2023-04-18T19:11:08.833Z,12.40
2023-04-18T19:13:38.941Z,12.40
2023-04-18T19:16:07.593Z,12.50
2023-04-18T19:18:36.120Z,12.40
2023-04-18T19:21:05.365Z,12.50
2023-04-18T19:23:33.991Z,12.50
2023-04-18T19:26:02.412Z,12.50
2023-04-18T19:28:30.930Z,12.50
2023-04-18T19:31:00.853Z,12.40
2023-04-18T19:33:29.556Z,12.50
2023-04-18T19:35:58.096Z,12.50
2023-04-18T19:38:26.829Z,12.50
2023-04-18T19:40:57.028Z,12.50
2023-04-18T19:43:25.194Z,12.50
2023-04-18T19:45:55.282Z,12.50
2023-04-18T19:48:25.098Z,12.50
2023-04-18T19:50:53.500Z,12.50
2023-04-18T19:53:23.447Z,12.60
2023-04-18T19:55:51.978Z,12.50
2023-04-18T19:58:36.545Z,12.40
2023-04-18T20:01:06.269Z,12.40
2023-04-18T20:03:36.481Z,12.50
2023-04-18T20:06:06.021Z,12.40
2023-04-18T20:08:36.101Z,12.40
2023-04-18T20:11:05.046Z,12.40
2023-04-18T20:13:34.661Z,12.50
2023-04-18T20:16:03.713Z,12.40
2023-04-18T20:18:33.975Z,12.40
2023-04-18T20:21:04.240Z,12.40
2023-04-18T20:23:32.570Z,12.50
2023-04-18T20:26:02.906Z,12.50
2023-04-18T20:28:33.389Z,12.50
2023-04-18T20:31:02.660Z,12.40
2023-04-18T20:33:31.565Z,12.50
2023-04-18T20:36:00.065Z,12.50
2023-04-18T20:38:30.000Z,12.50
2023-04-18T20:41:00.610Z,12.50
2023-04-18T20:43:29.497Z,12.60
2023-04-18T20:45:58.697Z,12.60
2023-04-18T20:48:27.219Z,12.50
2023-04-18T20:50:55.749Z,12.50
2023-04-18T20:53:26.025Z,12.50
2023-04-18T20:55:55.874Z,12.50
2023-04-18T20:58:24.084Z,12.50
2023-04-18T21:00:53.384Z,12.50
2023-04-18T21:03:21.764Z,12.50
2023-04-18T21:05:50.453Z,12.60
2023-04-18T21:08:19.443Z,12.50
2023-04-18T21:10:48.035Z,12.60
2023-04-18T21:13:17.921Z,12.50
2023-04-18T21:15:46.485Z,12.50
2023-04-18T21:18:14.676Z,12.60
2023-04-18T21:20:43.000Z,12.60
2023-04-18T21:23:11.188Z,12.60
2023-04-18T21:25:39.732Z,12.60
2023-04-18T21:28:08.808Z,12.50
2023-04-18T21:30:38.241Z,12.60
2023-04-18T21:33:06.563Z,12.60
2023-04-18T21:35:37.010Z,12.60
2023-04-18T21:38:07.922Z,12.60
2023-04-18T21:40:36.047Z,12.60
2023-04-18T21:43:04.247Z,12.60
2023-04-18T21:45:33.860Z,12.60
2023-04-18T21:48:03.584Z,12.50
2023-04-18T21:50:31.966Z,12.60
2023-04-18T21:53:00.121Z,12.50
2023-04-18T21:55:28.452Z,12.60
2023-04-18T21:57:57.687Z,12.60
2023-04-18T22:00:26.140Z,12.50
2023-04-18T22:02:54.883Z,12.60
2023-04-18T22:05:26.220Z,12.60
2023-04-18T22:07:58.521Z,12.60
2023-04-18T22:10:27.435Z,12.60
2023-04-18T22:12:55.989Z,12.60
2023-04-18T22:15:27.176Z,12.60
2023-04-18T22:17:55.639Z,12.60
2023-04-18T22:20:26.997Z,12.60
2023-04-18T22:22:55.703Z,12.60
2023-04-18T22:25:23.963Z,12.60
2023-04-18T22:27:52.420Z,12.60
2023-04-18T22:30:20.922Z,12.60
2023-04-18T22:32:49.198Z,12.60
2023-04-18T22:35:37.152Z,12.50
2023-04-18T22:38:06.118Z,12.60
2023-04-18T22:40:34.438Z,12.50
2023-04-18T22:43:02.601Z,12.50
2023-04-18T22:45:30.841Z,12.60
2023-04-18T22:47:59.128Z,12.60
2023-04-18T22:50:27.347Z,12.50
2023-04-18T22:52:57.432Z,12.60
2023-04-18T22:55:25.827Z,12.50
2023-04-18T22:57:53.895Z,12.60
2023-04-18T23:00:22.471Z,12.60
2023-04-18T23:02:51.741Z,12.60
2023-04-18T23:05:20.384Z,12.70
2023-04-18T23:07:48.514Z,12.60
2023-04-18T23:10:17.992Z,12.60
2023-04-18T23:12:46.424Z,12.50
2023-04-18T23:15:14.958Z,12.60
2023-04-18T23:17:43.585Z,12.50
2023-04-18T23:20:13.741Z,12.50
2023-04-18T23:22:42.143Z,12.50
2023-04-18T23:25:10.894Z,12.50
2023-04-18T23:27:40.425Z,12.50
2023-04-18T23:30:10.210Z,12.50
2023-04-18T23:32:38.407Z,12.50
2023-04-18T23:35:07.112Z,12.60
2023-04-18T23:37:35.345Z,12.60
2023-04-18T23:40:06.962Z,12.60
2023-04-18T23:42:35.780Z,12.50
2023-04-18T23:45:06.106Z,12.50
2023-04-18T23:47:34.726Z,12.50
2023-04-18T23:50:03.189Z,12.50
2023-04-18T23:52:31.700Z,12.50
2023-04-18T23:55:01.275Z,12.50
2023-04-18T23:57:29.909Z,12.50
2023-04-18T23:59:59.055Z,12.50
